sensor_id;sensor_type;location;lat;lon;timestamp;pressure;altitude;pressure_sealevel;temperature;humidity
17785;BME280;9016;53.582;10.062;2024-01-10T00:00:54;103534.03;;;-2.19;75.40
17785;BME280;9016;53.582;10.062;2024-01-10T00:03:22;103528.78;;;-2.20;75.67
17785;BME280;9016;53.582;10.062;2024-01-10T00:05:50;103535.00;;;-2.17;74.38
17785;BME280;9016;53.582;10.062;2024-01-10T00:08:17;103522.00;;;-2.39;73.72
17785;BME280;9016;53.582;10.062;2024-01-10T00:10:45;103526.22;;;-2.42;75.04
17785;BME280;9016;53.582;10.062;2024-01-10T00:13:14;103524.22;;;-2.49;74.37
17785;BME280;9016;53.582;10.062;2024-01-10T00:15:42;103533.69;;;-2.51;74.83
17785;BME280;9016;53.582;10.062;2024-01-10T00:18:11;103529.59;;;-2.67;75.09
17785;BME280;9016;53.582;10.062;2024-01-10T00:20:39;103533.28;;;-2.62;75.06
17785;BME280;9016;53.582;10.062;2024-01-10T00:23:07;103527.34;;;-2.58;75.06
17785;BME280;9016;53.582;10.062;2024-01-10T00:25:35;103526.25;;;-2.64;73.27
17785;BME280;9016;53.582;10.062;2024-01-10T00:28:03;103521.78;;;-2.67;74.77
17785;BME280;9016;53.582;10.062;2024-01-10T00:30:31;103524.03;;;-2.54;74.50
17785;BME280;9016;53.582;10.062;2024-01-10T00:32:59;103528.78;;;-2.66;73.21
17785;BME280;9016;53.582;10.062;2024-01-10T00:35:29;103528.34;;;-2.76;73.43
17785;BME280;9016;53.582;10.062;2024-01-10T00:37:57;103533.81;;;-2.92;73.78
17785;BME280;9016;53.582;10.062;2024-01-10T00:40:25;103536.31;;;-2.95;74.36
17785;BME280;9016;53.582;10.062;2024-01-10T00:42:53;103535.97;;;-2.82;74.81
17785;BME280;9016;53.582;10.062;2024-01-10T00:45:21;103531.31;;;-2.89;75.26
17785;BME280;9016;53.582;10.062;2024-01-10T00:47:49;103533.41;;;-2.81;75.76
17785;BME280;9016;53.582;10.062;2024-01-10T00:50:17;103527.84;;;-2.68;75.45
17785;BME280;9016;53.582;10.062;2024-01-10T00:52:46;103528.94;;;-2.61;74.71
17785;BME280;9016;53.582;10.062;2024-01-10T00:55:15;103520.59;;;-2.53;74.37
17785;BME280;9016;53.582;10.062;2024-01-10T00:57:42;103528.28;;;-2.56;73.89
17785;BME280;9016;53.582;10.062;2024-01-10T01:00:11;103532.63;;;-2.56;74.75
17785;BME280;9016;53.582;10.062;2024-01-10T01:02:39;103529.19;;;-2.55;74.38
17785;BME280;9016;53.582;10.062;2024-01-10T01:05:07;103533.81;;;-2.48;73.34
17785;BME280;9016;53.582;10.062;2024-01-10T01:07:36;103537.19;;;-2.51;74.09
17785;BME280;9016;53.582;10.062;2024-01-10T01:10:06;103537.31;;;-2.48;74.23
17785;BME280;9016;53.582;10.062;2024-01-10T01:12:35;103532.25;;;-2.43;74.11
17785;BME280;9016;53.582;10.062;2024-01-10T01:15:04;103534.47;;;-2.76;74.45
17785;BME280;9016;53.582;10.062;2024-01-10T01:17:31;103548.56;;;-2.93;74.79
17785;BME280;9016;53.582;10.062;2024-01-10T01:20:00;103546.09;;;-2.90;75.68
17785;BME280;9016;53.582;10.062;2024-01-10T01:22:31;103544.75;;;-2.80;76.58
17785;BME280;9016;53.582;10.062;2024-01-10T01:24:59;103536.28;;;-2.97;76.65
17785;BME280;9016;53.582;10.062;2024-01-10T01:27:28;103539.28;;;-2.86;77.29
17785;BME280;9016;53.582;10.062;2024-01-10T01:29:56;103532.91;;;-2.93;76.71
17785;BME280;9016;53.582;10.062;2024-01-10T01:32:24;103525.75;;;-2.98;78.13
17785;BME280;9016;53.582;10.062;2024-01-10T01:34:52;103531.50;;;-3.07;77.89
17785;BME280;9016;53.582;10.062;2024-01-10T01:37:20;103539.28;;;-3.09;78.68
17785;BME280;9016;53.582;10.062;2024-01-10T01:39:48;103539.13;;;-3.12;79.96
17785;BME280;9016;53.582;10.062;2024-01-10T01:42:16;103530.31;;;-2.93;80.24
17785;BME280;9016;53.582;10.062;2024-01-10T01:44:45;103530.75;;;-2.82;79.43
17785;BME280;9016;53.582;10.062;2024-01-10T01:47:13;103523.13;;;-2.98;79.97
17785;BME280;9016;53.582;10.062;2024-01-10T01:49:42;103522.13;;;-3.02;80.54
17785;BME280;9016;53.582;10.062;2024-01-10T01:52:12;103526.69;;;-2.96;81.53
17785;BME280;9016;53.582;10.062;2024-01-10T01:54:40;103520.06;;;-2.88;81.29
17785;BME280;9016;53.582;10.062;2024-01-10T01:57:08;103521.78;;;-2.89;81.58
17785;BME280;9016;53.582;10.062;2024-01-10T01:59:36;103515.91;;;-2.83;81.20
17785;BME280;9016;53.582;10.062;2024-01-10T02:02:06;103521.78;;;-2.89;81.29
17785;BME280;9016;53.582;10.062;2024-01-10T02:04:36;103508.03;;;-2.85;81.87
17785;BME280;9016;53.582;10.062;2024-01-10T02:07:04;103526.09;;;-2.89;81.93
17785;BME280;9016;53.582;10.062;2024-01-10T02:09:32;103522.50;;;-2.93;82.36
17785;BME280;9016;53.582;10.062;2024-01-10T02:12:00;103519.47;;;-3.04;81.93
17785;BME280;9016;53.582;10.062;2024-01-10T02:14:28;103520.78;;;-2.92;82.62
17785;BME280;9016;53.582;10.062;2024-01-10T02:16:56;103528.91;;;-2.85;82.57
17785;BME280;9016;53.582;10.062;2024-01-10T02:19:25;103523.09;;;-2.78;82.22
17785;BME280;9016;53.582;10.062;2024-01-10T02:21:55;103524.22;;;-2.93;82.89
17785;BME280;9016;53.582;10.062;2024-01-10T02:24:23;103516.88;;;-2.81;83.51
17785;BME280;9016;53.582;10.062;2024-01-10T02:26:53;103521.72;;;-2.90;82.37
17785;BME280;9016;53.582;10.062;2024-01-10T02:29:21;103512.06;;;-2.71;83.05
17785;BME280;9016;53.582;10.062;2024-01-10T02:31:50;103515.09;;;-2.60;83.22
17785;BME280;9016;53.582;10.062;2024-01-10T02:34:18;103517.16;;;-2.74;82.43
17785;BME280;9016;53.582;10.062;2024-01-10T02:36:46;103508.72;;;-2.67;82.58
17785;BME280;9016;53.582;10.062;2024-01-10T02:39:14;103511.38;;;-2.65;82.37
17785;BME280;9016;53.582;10.062;2024-01-10T02:41:42;103501.16;;;-2.83;83.03
17785;BME280;9016;53.582;10.062;2024-01-10T02:44:11;103514.13;;;-2.62;83.25
17785;BME280;9016;53.582;10.062;2024-01-10T02:46:41;103500.53;;;-2.54;82.37
17785;BME280;9016;53.582;10.062;2024-01-10T02:49:09;103505.66;;;-2.33;82.14
17785;BME280;9016;53.582;10.062;2024-01-10T02:51:37;103497.72;;;-2.36;80.63
17785;BME280;9016;53.582;10.062;2024-01-10T02:54:05;103504.03;;;-2.30;80.80
17785;BME280;9016;53.582;10.062;2024-01-10T02:56:33;103498.69;;;-2.09;81.15
17785;BME280;9016;53.582;10.062;2024-01-10T02:59:00;103500.19;;;-1.92;81.17
17785;BME280;9016;53.582;10.062;2024-01-10T03:01:30;103503.94;;;-1.84;80.63
17785;BME280;9016;53.582;10.062;2024-01-10T03:03:58;103506.00;;;-1.99;78.96
17785;BME280;9016;53.582;10.062;2024-01-10T03:06:26;103509.53;;;-2.22;80.31
17785;BME280;9016;53.582;10.062;2024-01-10T03:08:54;103515.47;;;-2.03;81.10
17785;BME280;9016;53.582;10.062;2024-01-10T03:11:22;103503.53;;;-1.96;80.06
17785;BME280;9016;53.582;10.062;2024-01-10T03:13:53;103503.25;;;-2.04;79.00
17785;BME280;9016;53.582;10.062;2024-01-10T03:16:29;103496.94;;;-1.85;79.04
17785;BME280;9016;53.582;10.062;2024-01-10T03:18:57;103499.38;;;-1.89;79.27
17785;BME280;9016;53.582;10.062;2024-01-10T03:21:26;103495.81;;;-1.91;78.91
17785;BME280;9016;53.582;10.062;2024-01-10T03:23:55;103487.56;;;-1.78;78.88
17785;BME280;9016;53.582;10.062;2024-01-10T03:26:23;103496.63;;;-1.69;78.03
17785;BME280;9016;53.582;10.062;2024-01-10T03:28:52;103496.53;;;-1.72;77.99
17785;BME280;9016;53.582;10.062;2024-01-10T03:31:20;103494.91;;;-1.68;78.08
17785;BME280;9016;53.582;10.062;2024-01-10T03:33:49;103498.63;;;-1.60;77.05
17785;BME280;9016;53.582;10.062;2024-01-10T03:36:18;103490.03;;;-1.58;76.72
17785;BME280;9016;53.582;10.062;2024-01-10T03:38:46;103490.88;;;-1.59;77.38
17785;BME280;9016;53.582;10.062;2024-01-10T03:41:14;103496.69;;;-1.41;76.92
17785;BME280;9016;53.582;10.062;2024-01-10T03:43:42;103482.38;;;-1.52;77.29
17785;BME280;9016;53.582;10.062;2024-01-10T03:46:11;103483.28;;;-1.51;76.48
17785;BME280;9016;53.582;10.062;2024-01-10T03:48:39;103475.06;;;-1.88;76.02
17785;BME280;9016;53.582;10.062;2024-01-10T03:51:17;103480.00;;;-1.71;78.72
17785;BME280;9016;53.582;10.062;2024-01-10T03:53:45;103474.63;;;-1.75;76.87
17785;BME280;9016;53.582;10.062;2024-01-10T03:56:16;103479.28;;;-1.92;77.63
17785;BME280;9016;53.582;10.062;2024-01-10T03:58:44;103482.56;;;-1.72;77.43
17785;BME280;9016;53.582;10.062;2024-01-10T04:01:15;103487.00;;;-1.95;77.04
17785;BME280;9016;53.582;10.062;2024-01-10T04:03:43;103486.13;;;-1.70;78.94
17785;BME280;9016;53.582;10.062;2024-01-10T04:06:11;103474.75;;;-1.46;77.07
17785;BME280;9016;53.582;10.062;2024-01-10T04:08:40;103479.03;;;-1.48;75.90
17785;BME280;9016;53.582;10.062;2024-01-10T04:11:08;103482.91;;;-1.62;76.23
17785;BME280;9016;53.582;10.062;2024-01-10T04:13:36;103483.16;;;-1.54;76.82
17785;BME280;9016;53.582;10.062;2024-01-10T04:16:05;103467.59;;;-1.51;77.09
17785;BME280;9016;53.582;10.062;2024-01-10T04:18:33;103476.25;;;-1.52;76.91
17785;BME280;9016;53.582;10.062;2024-01-10T04:21:01;103469.38;;;-1.50;76.90
17785;BME280;9016;53.582;10.062;2024-01-10T04:23:29;103467.38;;;-1.31;77.38
17785;BME280;9016;53.582;10.062;2024-01-10T04:26:02;103479.75;;;-1.25;76.59
17785;BME280;9016;53.582;10.062;2024-01-10T04:28:30;103476.44;;;-1.20;76.86
17785;BME280;9016;53.582;10.062;2024-01-10T04:30:58;103471.00;;;-0.99;76.90
17785;BME280;9016;53.582;10.062;2024-01-10T04:33:26;103469.66;;;-1.15;76.21
17785;BME280;9016;53.582;10.062;2024-01-10T04:35:54;103472.06;;;-1.21;76.45
17785;BME280;9016;53.582;10.062;2024-01-10T04:38:22;103467.31;;;-1.06;77.23
17785;BME280;9016;53.582;10.062;2024-01-10T04:40:53;103465.72;;;-1.01;77.17
17785;BME280;9016;53.582;10.062;2024-01-10T04:43:22;103465.78;;;-0.98;77.27
17785;BME280;9016;53.582;10.062;2024-01-10T04:45:50;103466.94;;;-0.89;77.16
17785;BME280;9016;53.582;10.062;2024-01-10T04:48:18;103463.28;;;-0.94;77.25
17785;BME280;9016;53.582;10.062;2024-01-10T04:50:47;103451.97;;;-0.93;77.56
17785;BME280;9016;53.582;10.062;2024-01-10T04:53:14;103450.88;;;-1.02;78.39
17785;BME280;9016;53.582;10.062;2024-01-10T04:55:43;103449.31;;;-0.95;77.97
17785;BME280;9016;53.582;10.062;2024-01-10T04:58:13;103451.03;;;-0.95;79.86
17785;BME280;9016;53.582;10.062;2024-01-10T05:00:43;103450.00;;;-0.72;78.90
17785;BME280;9016;53.582;10.062;2024-01-10T05:03:11;103447.50;;;-0.68;78.56
17785;BME280;9016;53.582;10.062;2024-01-10T05:05:38;103444.06;;;-0.67;78.84
17785;BME280;9016;53.582;10.062;2024-01-10T05:08:07;103446.22;;;-0.52;78.61
17785;BME280;9016;53.582;10.062;2024-01-10T05:10:35;103447.72;;;-0.60;78.10
17785;BME280;9016;53.582;10.062;2024-01-10T05:13:03;103451.69;;;-0.74;78.77
17785;BME280;9016;53.582;10.062;2024-01-10T05:15:31;103449.34;;;-0.93;79.97
17785;BME280;9016;53.582;10.062;2024-01-10T05:18:00;103443.63;;;-0.80;80.36
17785;BME280;9016;53.582;10.062;2024-01-10T05:20:38;103447.16;;;-0.80;80.39
17785;BME280;9016;53.582;10.062;2024-01-10T05:23:09;103444.84;;;-0.69;80.27
17785;BME280;9016;53.582;10.062;2024-01-10T05:25:37;103442.19;;;-0.71;80.17
17785;BME280;9016;53.582;10.062;2024-01-10T05:28:06;103449.16;;;-0.71;79.90
17785;BME280;9016;53.582;10.062;2024-01-10T05:30:37;103449.16;;;-0.71;80.46
17785;BME280;9016;53.582;10.062;2024-01-10T05:33:06;103443.09;;;-0.70;79.81
17785;BME280;9016;53.582;10.062;2024-01-10T05:35:34;103454.03;;;-0.83;80.21
17785;BME280;9016;53.582;10.062;2024-01-10T05:38:03;103444.63;;;-0.77;80.27
17785;BME280;9016;53.582;10.062;2024-01-10T05:40:32;103450.16;;;-0.66;79.52
17785;BME280;9016;53.582;10.062;2024-01-10T05:43:00;103444.91;;;-0.66;79.90
17785;BME280;9016;53.582;10.062;2024-01-10T05:45:28;103438.97;;;-0.61;80.58
17785;BME280;9016;53.582;10.062;2024-01-10T05:47:56;103435.78;;;-0.51;79.35
17785;BME280;9016;53.582;10.062;2024-01-10T05:50:26;103442.88;;;-0.47;79.09
17785;BME280;9016;53.582;10.062;2024-01-10T05:52:54;103439.28;;;-0.50;80.18
17785;BME280;9016;53.582;10.062;2024-01-10T05:55:22;103440.25;;;-0.47;79.06
17785;BME280;9016;53.582;10.062;2024-01-10T05:57:50;103437.16;;;-0.63;79.16
17785;BME280;9016;53.582;10.062;2024-01-10T06:00:18;103431.75;;;-0.69;78.84
17785;BME280;9016;53.582;10.062;2024-01-10T06:02:48;103439.41;;;-0.75;79.39
17785;BME280;9016;53.582;10.062;2024-01-10T06:05:16;103441.72;;;-0.86;80.27
17785;BME280;9016;53.582;10.062;2024-01-10T06:07:45;103441.22;;;-0.74;79.73
17785;BME280;9016;53.582;10.062;2024-01-10T06:10:13;103434.25;;;-0.74;80.00
17785;BME280;9016;53.582;10.062;2024-01-10T06:12:41;103437.72;;;-0.73;80.56
17785;BME280;9016;53.582;10.062;2024-01-10T06:15:09;103443.88;;;-0.73;79.70
17785;BME280;9016;53.582;10.062;2024-01-10T06:17:37;103439.19;;;-0.83;80.36
17785;BME280;9016;53.582;10.062;2024-01-10T06:20:07;103434.66;;;-0.88;81.35
17785;BME280;9016;53.582;10.062;2024-01-10T06:22:35;103436.66;;;-0.81;81.83
17785;BME280;9016;53.582;10.062;2024-01-10T06:25:06;103434.19;;;-0.75;81.63
17785;BME280;9016;53.582;10.062;2024-01-10T06:27:34;103439.53;;;-0.72;80.32
17785;BME280;9016;53.582;10.062;2024-01-10T06:30:02;103437.63;;;-0.78;80.69
17785;BME280;9016;53.582;10.062;2024-01-10T06:32:30;103442.25;;;-0.68;80.54
17785;BME280;9016;53.582;10.062;2024-01-10T06:35:06;103431.44;;;-0.80;80.58
17785;BME280;9016;53.582;10.062;2024-01-10T06:37:37;103431.72;;;-0.71;80.71
17785;BME280;9016;53.582;10.062;2024-01-10T06:40:11;103431.78;;;-0.68;80.61
17785;BME280;9016;53.582;10.062;2024-01-10T06:42:39;103433.59;;;-0.67;81.01
17785;BME280;9016;53.582;10.062;2024-01-10T06:45:08;103435.97;;;-0.45;81.26
17785;BME280;9016;53.582;10.062;2024-01-10T06:47:38;103437.81;;;-0.41;79.50
17785;BME280;9016;53.582;10.062;2024-01-10T06:50:08;103431.53;;;-0.46;78.94
17785;BME280;9016;53.582;10.062;2024-01-10T06:52:36;103430.69;;;-0.46;78.93
17785;BME280;9016;53.582;10.062;2024-01-10T06:55:07;103442.06;;;-0.44;78.12
17785;BME280;9016;53.582;10.062;2024-01-10T06:57:39;103434.28;;;-0.43;78.20
17785;BME280;9016;53.582;10.062;2024-01-10T07:00:11;103439.72;;;-0.35;78.46
17785;BME280;9016;53.582;10.062;2024-01-10T07:02:40;103441.16;;;-0.15;78.70
17785;BME280;9016;53.582;10.062;2024-01-10T07:05:09;103435.31;;;-0.04;78.34
17785;BME280;9016;53.582;10.062;2024-01-10T07:07:37;103430.41;;;-0.24;78.02
17785;BME280;9016;53.582;10.062;2024-01-10T07:10:06;103437.25;;;-0.29;78.03
17785;BME280;9016;53.582;10.062;2024-01-10T07:12:34;103441.31;;;-0.40;78.56
17785;BME280;9016;53.582;10.062;2024-01-10T07:15:04;103434.50;;;-0.35;77.82
17785;BME280;9016;53.582;10.062;2024-01-10T07:17:33;103440.25;;;-0.47;77.72
17785;BME280;9016;53.582;10.062;2024-01-10T07:20:01;103439.44;;;-0.44;78.04
17785;BME280;9016;53.582;10.062;2024-01-10T07:22:30;103439.56;;;-0.71;78.96
17785;BME280;9016;53.582;10.062;2024-01-10T07:24:58;103437.66;;;-0.76;80.88
17785;BME280;9016;53.582;10.062;2024-01-10T07:27:26;103437.16;;;-0.63;79.78
17785;BME280;9016;53.582;10.062;2024-01-10T07:29:54;103443.63;;;-0.51;79.57
17785;BME280;9016;53.582;10.062;2024-01-10T07:32:27;103440.22;;;-0.48;79.38
17785;BME280;9016;53.582;10.062;2024-01-10T07:34:55;103442.31;;;-0.66;79.79
17785;BME280;9016;53.582;10.062;2024-01-10T07:37:27;103433.00;;;-0.55;80.32
17785;BME280;9016;53.582;10.062;2024-01-10T07:40:04;103439.78;;;-0.63;79.98
17785;BME280;9016;53.582;10.062;2024-01-10T07:42:33;103439.16;;;-0.55;80.05
17785;BME280;9016;53.582;10.062;2024-01-10T07:45:04;103437.84;;;-0.70;79.64
17785;BME280;9016;53.582;10.062;2024-01-10T07:47:34;103438.78;;;-0.68;80.57
17785;BME280;9016;53.582;10.062;2024-01-10T07:50:05;103438.44;;;-0.49;80.80
17785;BME280;9016;53.582;10.062;2024-01-10T07:52:33;103442.59;;;-0.57;80.70
17785;BME280;9016;53.582;10.062;2024-01-10T07:55:02;103433.00;;;-0.55;81.12
17785;BME280;9016;53.582;10.062;2024-01-10T07:57:38;103434.84;;;-0.53;80.52
17785;BME280;9016;53.582;10.062;2024-01-10T08:00:09;103446.03;;;-0.58;80.88
17785;BME280;9016;53.582;10.062;2024-01-10T08:02:39;103446.53;;;-0.40;81.25
17785;BME280;9016;53.582;10.062;2024-01-10T08:05:08;103458.06;;;-0.35;79.65
17785;BME280;9016;53.582;10.062;2024-01-10T08:07:36;103450.59;;;-0.20;80.10
17785;BME280;9016;53.582;10.062;2024-01-10T08:10:05;103463.75;;;-0.19;79.43
17785;BME280;9016;53.582;10.062;2024-01-10T08:12:34;103459.13;;;-0.27;79.40
17785;BME280;9016;53.582;10.062;2024-01-10T08:15:03;103465.81;;;-0.38;78.97
17785;BME280;9016;53.582;10.062;2024-01-10T08:17:31;103456.81;;;-0.17;79.69
17785;BME280;9016;53.582;10.062;2024-01-10T08:20:01;103456.56;;;-0.26;78.26
17785;BME280;9016;53.582;10.062;2024-01-10T08:22:31;103467.34;;;-0.46;78.83
17785;BME280;9016;53.582;10.062;2024-01-10T08:24:59;103459.63;;;-0.71;79.67
17785;BME280;9016;53.582;10.062;2024-01-10T08:27:27;103462.47;;;-0.64;80.02
17785;BME280;9016;53.582;10.062;2024-01-10T08:29:57;103466.22;;;-0.54;80.48
17785;BME280;9016;53.582;10.062;2024-01-10T08:32:31;103463.63;;;-0.54;80.16
17785;BME280;9016;53.582;10.062;2024-01-10T08:35:04;103467.16;;;-0.52;79.87
17785;BME280;9016;53.582;10.062;2024-01-10T08:37:33;103464.84;;;-0.42;80.29
17785;BME280;9016;53.582;10.062;2024-01-10T08:40:01;103458.94;;;-0.35;80.24
17785;BME280;9016;53.582;10.062;2024-01-10T08:42:34;103458.81;;;-0.39;79.03
17785;BME280;9016;53.582;10.062;2024-01-10T08:45:02;103459.84;;;-0.33;79.11
17785;BME280;9016;53.582;10.062;2024-01-10T08:47:30;103458.22;;;-0.29;79.17
17785;BME280;9016;53.582;10.062;2024-01-10T08:50:00;103464.16;;;-0.35;79.67
17785;BME280;9016;53.582;10.062;2024-01-10T08:52:29;103466.81;;;-0.33;80.51
17785;BME280;9016;53.582;10.062;2024-01-10T08:54:57;103460.34;;;-0.46;80.38
17785;BME280;9016;53.582;10.062;2024-01-10T08:57:25;103461.59;;;-0.33;81.39
17785;BME280;9016;53.582;10.062;2024-01-10T08:59:54;103452.84;;;-0.34;81.01
17785;BME280;9016;53.582;10.062;2024-01-10T09:02:22;103456.63;;;-0.24;80.56
17785;BME280;9016;53.582;10.062;2024-01-10T09:04:50;103453.59;;;-0.07;79.47
17785;BME280;9016;53.582;10.062;2024-01-10T09:07:18;103457.34;;;0.03;78.51
17785;BME280;9016;53.582;10.062;2024-01-10T09:09:49;103447.16;;;-0.19;78.02
17785;BME280;9016;53.582;10.062;2024-01-10T09:12:17;103436.19;;;-0.37;78.85
17785;BME280;9016;53.582;10.062;2024-01-10T09:14:45;103439.91;;;-0.28;79.63
17785;BME280;9016;53.582;10.062;2024-01-10T09:17:13;103436.91;;;-0.10;79.48
17785;BME280;9016;53.582;10.062;2024-01-10T09:19:41;103438.66;;;0.24;78.13
17785;BME280;9016;53.582;10.062;2024-01-10T09:22:10;103434.47;;;0.32;77.24
17785;BME280;9016;53.582;10.062;2024-01-10T09:24:40;103435.22;;;0.26;76.48
17785;BME280;9016;53.582;10.062;2024-01-10T09:27:11;103426.09;;;0.46;76.52
17785;BME280;9016;53.582;10.062;2024-01-10T09:29:39;103429.69;;;0.50;75.93
17785;BME280;9016;53.582;10.062;2024-01-10T09:32:07;103425.22;;;0.46;76.02
17785;BME280;9016;53.582;10.062;2024-01-10T09:34:35;103427.09;;;0.50;76.12
17785;BME280;9016;53.582;10.062;2024-01-10T09:37:03;103420.53;;;0.33;75.97
17785;BME280;9016;53.582;10.062;2024-01-10T09:39:31;103425.97;;;0.40;76.11
17785;BME280;9016;53.582;10.062;2024-01-10T09:42:00;103424.50;;;0.53;75.51
17785;BME280;9016;53.582;10.062;2024-01-10T09:44:32;103425.81;;;0.34;75.60
17785;BME280;9016;53.582;10.062;2024-01-10T09:47:03;103417.94;;;0.34;75.64
17785;BME280;9016;53.582;10.062;2024-01-10T09:49:31;103421.03;;;0.54;75.21
17785;BME280;9016;53.582;10.062;2024-01-10T09:52:03;103409.50;;;0.46;74.99
17785;BME280;9016;53.582;10.062;2024-01-10T09:54:33;103421.59;;;0.05;74.89
17785;BME280;9016;53.582;10.062;2024-01-10T09:57:03;103421.13;;;-0.13;75.51
17785;BME280;9016;53.582;10.062;2024-01-10T09:59:34;103423.63;;;0.17;75.96
17785;BME280;9016;53.582;10.062;2024-01-10T10:02:03;103420.19;;;0.55;75.09
17785;BME280;9016;53.582;10.062;2024-01-10T10:04:31;103406.97;;;0.52;73.91
17785;BME280;9016;53.582;10.062;2024-01-10T10:06:59;103428.13;;;0.58;72.82
17785;BME280;9016;53.582;10.062;2024-01-10T10:09:29;103426.72;;;0.35;72.40
17785;BME280;9016;53.582;10.062;2024-01-10T10:11:58;103426.09;;;0.11;73.62
17785;BME280;9016;53.582;10.062;2024-01-10T10:14:28;103423.78;;;0.24;73.81
17785;BME280;9016;53.582;10.062;2024-01-10T10:17:13;103422.69;;;0.50;73.74
17785;BME280;9016;53.582;10.062;2024-01-10T10:19:41;103426.72;;;0.36;73.71
17785;BME280;9016;53.582;10.062;2024-01-10T10:22:10;103428.66;;;0.43;73.59
17785;BME280;9016;53.582;10.062;2024-01-10T10:24:39;103429.75;;;0.53;73.07
17785;BME280;9016;53.582;10.062;2024-01-10T10:27:08;103426.06;;;0.45;72.82
17785;BME280;9016;53.582;10.062;2024-01-10T10:29:41;103429.38;;;0.38;72.81
17785;BME280;9016;53.582;10.062;2024-01-10T10:32:15;103427.50;;;0.68;71.43
17785;BME280;9016;53.582;10.062;2024-01-10T10:34:45;103418.50;;;0.21;72.80
17785;BME280;9016;53.582;10.062;2024-01-10T10:37:13;103427.44;;;-0.04;72.88
17785;BME280;9016;53.582;10.062;2024-01-10T10:39:41;103424.09;;;0.02;73.15
17785;BME280;9016;53.582;10.062;2024-01-10T10:42:09;103425.47;;;0.21;72.83
17785;BME280;9016;53.582;10.062;2024-01-10T10:44:39;103429.59;;;0.47;72.42
17785;BME280;9016;53.582;10.062;2024-01-10T10:47:09;103432.41;;;0.54;72.06
17785;BME280;9016;53.582;10.062;2024-01-10T10:49:47;103432.00;;;0.73;72.09
17785;BME280;9016;53.582;10.062;2024-01-10T10:52:18;103438.13;;;0.74;69.91
17785;BME280;9016;53.582;10.062;2024-01-10T10:54:47;103427.91;;;0.49;71.49
17785;BME280;9016;53.582;10.062;2024-01-10T10:57:16;103426.81;;;0.41;71.50
17785;BME280;9016;53.582;10.062;2024-01-10T10:59:46;103445.94;;;0.01;72.38
17785;BME280;9016;53.582;10.062;2024-01-10T11:02:20;103442.16;;;-0.10;72.27
17785;BME280;9016;53.582;10.062;2024-01-10T11:04:54;103450.31;;;-0.31;72.89
17785;BME280;9016;53.582;10.062;2024-01-10T11:07:23;103444.56;;;-0.18;73.79
17785;BME280;9016;53.582;10.062;2024-01-10T11:09:51;103450.06;;;-0.07;73.22
17785;BME280;9016;53.582;10.062;2024-01-10T11:12:32;103436.63;;;0.12;72.91
17785;BME280;9016;53.582;10.062;2024-01-10T11:15:14;103434.28;;;0.24;73.08
17785;BME280;9016;53.582;10.062;2024-01-10T11:18:06;103437.81;;;0.25;71.50
17785;BME280;9016;53.582;10.062;2024-01-10T11:20:53;103440.75;;;0.37;71.79
17785;BME280;9016;53.582;10.062;2024-01-10T11:23:43;103440.69;;;0.71;71.38
17785;BME280;9016;53.582;10.062;2024-01-10T11:26:15;103433.00;;;0.80;71.11
17785;BME280;9016;53.582;10.062;2024-01-10T11:28:43;103426.84;;;0.78;70.18
17785;BME280;9016;53.582;10.062;2024-01-10T11:31:13;103424.94;;;0.35;71.26
17785;BME280;9016;53.582;10.062;2024-01-10T11:33:42;103420.03;;;0.49;71.83
17785;BME280;9016;53.582;10.062;2024-01-10T11:36:14;103422.06;;;0.60;71.45
17785;BME280;9016;53.582;10.062;2024-01-10T11:38:47;103419.34;;;0.57;71.17
17785;BME280;9016;53.582;10.062;2024-01-10T11:41:21;103421.34;;;0.67;71.04
17785;BME280;9016;53.582;10.062;2024-01-10T11:44:27;103417.56;;;0.55;70.78
17785;BME280;9016;53.582;10.062;2024-01-10T11:46:57;103408.75;;;0.51;71.77
17785;BME280;9016;53.582;10.062;2024-01-10T11:49:25;103422.81;;;0.55;71.26
17785;BME280;9016;53.582;10.062;2024-01-10T11:51:56;103419.22;;;0.50;71.73
17785;BME280;9016;53.582;10.062;2024-01-10T11:54:38;103417.16;;;0.38;73.28
17785;BME280;9016;53.582;10.062;2024-01-10T11:57:11;103412.19;;;0.50;72.84
17785;BME280;9016;53.582;10.062;2024-01-10T11:59:41;103417.75;;;0.62;72.21
17785;BME280;9016;53.582;10.062;2024-01-10T12:02:10;103418.94;;;0.76;72.12
17785;BME280;9016;53.582;10.062;2024-01-10T12:04:38;103409.75;;;0.58;73.11
17785;BME280;9016;53.582;10.062;2024-01-10T12:07:16;103410.88;;;0.69;71.98
17785;BME280;9016;53.582;10.062;2024-01-10T12:09:46;103404.59;;;0.61;71.95
17785;BME280;9016;53.582;10.062;2024-01-10T12:12:14;103406.50;;;0.68;71.93
17785;BME280;9016;53.582;10.062;2024-01-10T12:14:43;103401.56;;;0.81;72.07
17785;BME280;9016;53.582;10.062;2024-01-10T12:17:11;103390.78;;;0.68;71.80
17785;BME280;9016;53.582;10.062;2024-01-10T12:19:39;103397.41;;;0.54;72.94
17785;BME280;9016;53.582;10.062;2024-01-10T12:22:11;103389.91;;;0.69;72.52
17785;BME280;9016;53.582;10.062;2024-01-10T12:24:44;103384.03;;;0.79;73.32
17785;BME280;9016;53.582;10.062;2024-01-10T12:27:16;103373.31;;;1.10;72.85
17785;BME280;9016;53.582;10.062;2024-01-10T12:29:48;103383.88;;;1.15;71.87
17785;BME280;9016;53.582;10.062;2024-01-10T12:32:17;103368.28;;;1.22;72.45
17785;BME280;9016;53.582;10.062;2024-01-10T12:34:46;103377.28;;;1.33;71.91
17785;BME280;9016;53.582;10.062;2024-01-10T12:37:14;103365.41;;;1.09;71.50
17785;BME280;9016;53.582;10.062;2024-01-10T12:39:43;103372.69;;;1.22;72.64
17785;BME280;9016;53.582;10.062;2024-01-10T12:42:11;103372.16;;;1.41;70.84
17785;BME280;9016;53.582;10.062;2024-01-10T12:44:43;103368.84;;;1.49;70.40
17785;BME280;9016;53.582;10.062;2024-01-10T12:47:18;103375.25;;;1.65;69.80
17785;BME280;9016;53.582;10.062;2024-01-10T12:49:46;103379.09;;;1.37;69.54
17785;BME280;9016;53.582;10.062;2024-01-10T12:52:14;103374.31;;;1.17;69.51
17785;BME280;9016;53.582;10.062;2024-01-10T12:54:48;103382.09;;;1.12;71.64
17785;BME280;9016;53.582;10.062;2024-01-10T12:57:16;103378.69;;;1.16;70.40
17785;BME280;9016;53.582;10.062;2024-01-10T12:59:46;103371.19;;;1.36;69.94
17785;BME280;9016;53.582;10.062;2024-01-10T13:02:17;103378.94;;;0.86;72.33
17785;BME280;9016;53.582;10.062;2024-01-10T13:04:45;103374.28;;;1.15;71.87